createdAt,value
2022-10-01T00:00:59.360Z,953.34
2022-10-01T00:03:59.151Z,953.3
2022-10-01T00:06:59.491Z,953.22
2022-10-01T00:09:59.119Z,953.33
2022-10-01T00:12:59.127Z,953.3
2022-10-01T00:15:59.236Z,953.19
2022-10-01T00:18:59.141Z,953.33
2022-10-01T00:21:59.097Z,953.23
2022-10-01T00:24:59.176Z,953.35
2022-10-01T00:27:58.764Z,953.29
2022-10-01T00:30:59.105Z,953.26
2022-10-01T00:33:58.919Z,953.2
2022-10-01T00:36:58.895Z,953.2
2022-10-01T00:39:59.446Z,953.25
2022-10-01T00:42:59.091Z,953.23
2022-10-01T00:45:58.974Z,953.26
2022-10-01T00:48:58.720Z,953.29
2022-10-01T00:51:59.302Z,953.14
2022-10-01T00:54:59.174Z,953.11
2022-10-01T00:57:58.882Z,953.03
2022-10-01T01:00:58.835Z,953.1
2022-10-01T01:03:58.418Z,952.97
2022-10-01T01:06:59.532Z,952.94
2022-10-01T01:09:58.374Z,952.96
2022-10-01T01:12:59.384Z,953.03
2022-10-01T01:15:59.410Z,953.0
2022-10-01T01:18:59.519Z,953.0
2022-10-01T01:21:58.963Z,953.03
2022-10-01T01:24:58.670Z,952.96
2022-10-01T01:27:59.222Z,952.91
2022-10-01T01:30:59.465Z,952.88
2022-10-01T01:33:59.443Z,952.92
2022-10-01T01:36:58.711Z,952.82
2022-10-01T01:39:58.892Z,952.81
2022-10-01T01:42:58.971Z,952.74
2022-10-01T01:45:59.260Z,952.77
2022-10-01T01:48:59.068Z,952.84
2022-10-01T01:51:59.291Z,952.81
2022-10-01T01:54:58.854Z,952.71
2022-10-01T01:57:58.795Z,952.69
2022-10-01T02:00:58.945Z,952.68
2022-10-01T02:03:58.786Z,952.66
2022-10-01T02:06:58.692Z,952.56
2022-10-01T02:09:58.727Z,952.59
2022-10-01T02:12:58.612Z,952.66
2022-10-01T02:15:58.638Z,952.64
2022-10-01T02:18:59.164Z,952.55
2022-10-01T02:21:59.387Z,952.55
2022-10-01T02:24:58.426Z,952.64
2022-10-01T02:27:59.362Z,952.68
2022-10-01T02:30:59.377Z,952.7
2022-10-01T02:33:58.611Z,952.58
2022-10-01T02:36:58.392Z,952.55
2022-10-01T02:39:59.599Z,952.5
2022-10-01T02:42:58.684Z,952.58
2022-10-01T02:45:59.206Z,952.51
2022-10-01T02:48:59.257Z,952.54
2022-10-01T02:51:58.401Z,952.54
2022-10-01T02:54:59.305Z,952.41
2022-10-01T02:57:59.013Z,952.4
2022-10-01T03:00:58.961Z,952.37
2022-10-01T03:03:59.008Z,952.38
2022-10-01T03:06:58.820Z,952.4
2022-10-01T03:09:59.263Z,952.32
2022-10-01T03:12:58.864Z,952.32
2022-10-01T03:15:59.412Z,952.27
2022-10-01T03:18:58.700Z,952.18
2022-10-01T03:21:58.676Z,952.28
2022-10-01T03:24:59.560Z,952.34
2022-10-01T03:27:58.558Z,952.31
2022-10-01T03:30:59.127Z,952.36
2022-10-01T03:33:58.875Z,952.34
2022-10-01T03:36:59.135Z,952.37
2022-10-01T03:39:58.605Z,952.38
2022-10-01T03:42:58.386Z,952.33
2022-10-01T03:45:58.825Z,952.34
2022-10-01T03:48:59.200Z,952.3
2022-10-01T03:51:58.917Z,952.3
2022-10-01T03:54:59.364Z,952.09
2022-10-01T03:57:58.794Z,952.1
2022-10-01T04:00:59.493Z,952.07
2022-10-01T04:03:59.243Z,951.95
2022-10-01T04:06:59.550Z,952.07
2022-10-01T04:09:58.920Z,952.07
2022-10-01T04:12:59.315Z,952.18
2022-10-01T04:15:58.973Z,952.11
2022-10-01T04:18:59.062Z,951.93
2022-10-01T04:21:59.177Z,951.87
2022-10-01T04:24:58.911Z,951.93
2022-10-01T04:27:59.278Z,951.93
2022-10-01T04:30:59.533Z,951.82
2022-10-01T04:33:58.589Z,951.76
2022-10-01T04:36:58.436Z,951.72
2022-10-01T04:39:59.679Z,951.79
2022-10-01T04:42:58.635Z,951.82
2022-10-01T04:45:58.442Z,951.83
2022-10-01T04:48:59.388Z,951.69
2022-10-01T04:51:59.304Z,951.66
2022-10-01T04:54:59.386Z,951.66
2022-10-01T04:57:58.683Z,951.7
2022-10-01T05:01:02.049Z,951.62
2022-10-01T05:03:59.226Z,951.72
2022-10-01T05:06:58.613Z,951.65
2022-10-01T05:09:59.330Z,951.79
2022-10-01T05:12:58.726Z,951.85
2022-10-01T05:15:59.342Z,951.84
2022-10-01T05:18:59.226Z,951.77
2022-10-01T05:21:59.121Z,951.83
2022-10-01T05:24:59.040Z,951.65
2022-10-01T05:27:58.819Z,951.71
2022-10-01T05:30:59.336Z,951.83
2022-10-01T05:33:58.791Z,951.82
2022-10-01T05:36:58.770Z,951.8
2022-10-01T05:39:59.075Z,951.79
2022-10-01T05:42:58.898Z,951.77
2022-10-01T05:45:58.877Z,951.76
2022-10-01T05:48:59.006Z,951.8
2022-10-01T05:51:58.917Z,951.73
2022-10-01T05:54:58.896Z,951.84
2022-10-01T05:57:58.922Z,951.83
2022-10-01T06:00:59.638Z,951.8
2022-10-01T06:03:58.911Z,951.61
2022-10-01T06:06:59.404Z,951.68
2022-10-01T06:09:59.223Z,951.61
2022-10-01T06:12:59.436Z,951.53
2022-10-01T06:15:58.905Z,951.51
2022-10-01T06:18:59.195Z,951.6
2022-10-01T06:21:59.396Z,951.56
2022-10-01T06:24:59.246Z,951.53
2022-10-01T06:27:59.010Z,951.44
2022-10-01T06:30:59.427Z,951.53
2022-10-01T06:33:59.807Z,951.38
2022-10-01T06:36:59.342Z,951.24
2022-10-01T06:39:59.260Z,951.24
2022-10-01T06:42:58.916Z,951.31
2022-10-01T06:45:59.661Z,951.33
2022-10-01T06:48:59.048Z,951.26
2022-10-01T06:51:59.190Z,951.31
2022-10-01T06:54:59.364Z,951.36
2022-10-01T06:57:59.135Z,951.36
2022-10-01T07:00:59.202Z,951.33
2022-10-01T07:03:58.624Z,951.34
2022-10-01T07:06:58.583Z,951.37
2022-10-01T07:09:58.545Z,951.37
2022-10-01T07:12:59.737Z,951.31
2022-10-01T07:15:59.539Z,951.17
2022-10-01T07:18:58.754Z,951.21
2022-10-01T07:21:58.761Z,951.1
2022-10-01T07:24:59.070Z,951.11
2022-10-01T07:27:59.152Z,951.13
2022-10-01T07:30:59.341Z,951.14
2022-10-01T07:33:59.105Z,951.28
2022-10-01T07:36:59.519Z,951.21
2022-10-01T07:39:59.137Z,951.26
2022-10-01T07:42:59.370Z,951.28
2022-10-01T07:45:59.459Z,951.31
2022-10-01T07:48:59.061Z,951.33
2022-10-01T07:51:58.922Z,951.33
2022-10-01T07:54:58.964Z,951.26
2022-10-01T07:57:59.249Z,951.32
2022-10-01T08:01:00.040Z,951.31
2022-10-01T08:03:59.006Z,951.43
2022-10-01T08:06:59.080Z,951.33
2022-10-01T08:09:59.221Z,951.24
2022-10-01T08:12:59.572Z,951.27
2022-10-01T08:15:58.443Z,951.34
2022-10-01T08:18:59.678Z,951.21
2022-10-01T08:21:58.993Z,951.36
2022-10-01T08:24:59.486Z,951.29
2022-10-01T08:27:59.058Z,951.28
2022-10-01T08:30:59.382Z,951.24
2022-10-01T08:33:59.297Z,951.43
2022-10-01T08:36:59.128Z,951.51
2022-10-01T08:39:59.602Z,951.49
2022-10-01T08:42:58.623Z,951.52
2022-10-01T08:45:59.289Z,951.42
2022-10-01T08:48:58.271Z,951.41
2022-10-01T08:51:58.781Z,951.34
2022-10-01T08:54:59.122Z,951.53
2022-10-01T08:57:59.575Z,951.31
2022-10-01T09:00:58.978Z,951.34
2022-10-01T09:03:58.879Z,951.44
2022-10-01T09:06:58.902Z,951.44
2022-10-01T09:09:58.962Z,951.18
2022-10-01T09:12:59.383Z,951.29
2022-10-01T09:15:58.906Z,951.37
2022-10-01T09:18:58.857Z,951.34
2022-10-01T09:21:59.087Z,951.33
2022-10-01T09:24:59.397Z,951.13
2022-10-01T09:27:59.572Z,951.23
2022-10-01T09:30:59.502Z,951.25
2022-10-01T09:33:58.628Z,951.26
2022-10-01T09:36:58.679Z,951.33
2022-10-01T09:39:59.176Z,951.22
2022-10-01T09:42:58.368Z,951.24
2022-10-01T09:45:59.546Z,951.16
2022-10-01T09:48:58.712Z,951.22
2022-10-01T09:51:58.418Z,951.39
2022-10-01T09:54:59.191Z,951.35
2022-10-01T09:57:58.742Z,951.3
2022-10-01T10:00:59.141Z,951.33
2022-10-01T10:03:58.809Z,951.31
2022-10-01T10:06:59.087Z,951.45
2022-10-01T10:09:58.910Z,951.33
2022-10-01T10:12:58.765Z,951.38
2022-10-01T10:15:59.348Z,951.42
2022-10-01T10:18:59.492Z,951.35
2022-10-01T10:21:58.357Z,951.39
2022-10-01T10:24:59.162Z,951.33
2022-10-01T10:27:59.109Z,951.53
2022-10-01T10:30:59.955Z,951.66
2022-10-01T10:33:59.172Z,951.56
2022-10-01T10:37:03.668Z,951.73
2022-10-01T10:39:59.206Z,951.87
2022-10-01T10:42:59.497Z,951.69
2022-10-01T10:45:59.940Z,951.82
2022-10-01T10:48:58.825Z,951.86
2022-10-01T10:51:58.455Z,951.71
2022-10-01T10:54:58.608Z,951.69
2022-10-01T10:58:02.195Z,951.55
2022-10-01T11:00:59.252Z,951.52
2022-10-01T11:04:17.790Z,951.31
2022-10-01T11:06:59.240Z,951.23
2022-10-01T11:09:58.734Z,951.29
2022-10-01T11:12:58.596Z,951.18
2022-10-01T11:15:59.419Z,950.9
2022-10-01T11:18:59.268Z,950.9
2022-10-01T11:21:59.418Z,950.83
2022-10-01T11:24:59.024Z,950.94
2022-10-01T11:27:58.878Z,950.83
2022-10-01T11:30:59.389Z,950.86
2022-10-01T11:33:59.538Z,950.86
2022-10-01T11:36:58.882Z,950.81
2022-10-01T11:39:59.426Z,950.99
2022-10-01T11:42:58.713Z,950.93
2022-10-01T11:45:59.325Z,950.91
2022-10-01T11:48:59.230Z,950.98
2022-10-01T11:51:59.193Z,951.0
2022-10-01T11:54:58.510Z,950.92
2022-10-01T11:57:58.946Z,951.09
2022-10-01T12:00:59.562Z,951.18
2022-10-01T12:03:59.485Z,951.21
2022-10-01T12:06:58.949Z,951.22
2022-10-01T12:10:00.601Z,951.17
2022-10-01T12:12:59.253Z,951.21
2022-10-01T12:15:59.371Z,951.31
2022-10-01T12:18:59.785Z,951.23
2022-10-01T12:21:59.711Z,951.33
2022-10-01T12:24:58.644Z,951.29
2022-10-01T12:27:59.451Z,951.25
2022-10-01T12:30:59.161Z,951.32
2022-10-01T12:33:58.883Z,951.39
2022-10-01T12:36:59.004Z,951.41
2022-10-01T12:39:59.402Z,951.39
2022-10-01T12:43:03.208Z,951.31
2022-10-01T12:45:59.661Z,951.44
2022-10-01T12:48:58.998Z,951.34
2022-10-01T12:51:58.814Z,951.4
2022-10-01T12:54:59.328Z,951.34
2022-10-01T12:57:58.897Z,951.37
2022-10-01T13:00:58.829Z,951.34
2022-10-01T13:04:03.027Z,951.32
2022-10-01T13:06:58.414Z,951.36
2022-10-01T13:09:58.759Z,951.27
2022-10-01T13:12:59.344Z,951.58
2022-10-01T13:15:59.552Z,951.46
2022-10-01T13:18:58.602Z,951.51
2022-10-01T13:21:58.523Z,951.58
2022-10-01T13:24:59.324Z,951.64
2022-10-01T13:27:58.588Z,951.74
2022-10-01T13:30:59.605Z,951.69
2022-10-01T13:33:59.210Z,951.65
2022-10-01T13:36:59.527Z,951.61
2022-10-01T13:39:59.006Z,951.58
2022-10-01T13:42:59.078Z,951.66
2022-10-01T13:46:00.143Z,951.61
2022-10-01T13:48:59.338Z,951.64
2022-10-01T13:51:58.954Z,951.61
2022-10-01T13:54:59.400Z,951.61
2022-10-01T13:57:59.007Z,951.66
2022-10-01T14:00:59.857Z,951.64
2022-10-01T14:03:59.906Z,951.69
2022-10-01T14:06:59.442Z,951.74
2022-10-01T14:09:59.714Z,951.66
2022-10-01T14:12:59.343Z,951.81
2022-10-01T14:15:58.962Z,951.84
2022-10-01T14:18:58.674Z,951.81
2022-10-01T14:21:59.780Z,951.75
2022-10-01T14:24:58.520Z,951.85
2022-10-01T14:27:59.923Z,951.72
2022-10-01T14:31:00.208Z,951.82
2022-10-01T14:33:59.159Z,951.69
2022-10-01T14:36:59.189Z,951.68
2022-10-01T14:39:59.352Z,951.85
2022-10-01T14:42:59.254Z,951.82
2022-10-01T14:45:58.771Z,951.86
2022-10-01T14:48:59.682Z,951.92
2022-10-01T14:51:58.392Z,951.94
2022-10-01T14:54:58.444Z,951.84
2022-10-01T14:57:58.703Z,951.81
2022-10-01T15:00:59.479Z,951.89
2022-10-01T15:03:59.175Z,951.88
2022-10-01T15:06:59.268Z,951.91
2022-10-01T15:09:59.312Z,951.88
2022-10-01T15:12:58.438Z,951.96
2022-10-01T15:15:58.914Z,951.82
2022-10-01T15:18:59.047Z,952.03
2022-10-01T15:21:59.529Z,952.04
2022-10-01T15:24:59.171Z,952.04
2022-10-01T15:27:58.815Z,951.95
2022-10-01T15:30:59.598Z,952.03
2022-10-01T15:33:59.505Z,951.98
2022-10-01T15:36:59.488Z,952.17
2022-10-01T15:39:59.522Z,952.07
2022-10-01T15:42:59.197Z,951.92
2022-10-01T15:45:59.440Z,952.03
2022-10-01T15:48:59.337Z,951.98
2022-10-01T15:51:59.741Z,952.07
2022-10-01T15:54:59.158Z,952.16
2022-10-01T15:57:59.549Z,952.19
2022-10-01T16:00:59.458Z,952.26
2022-10-01T16:03:59.231Z,952.29
2022-10-01T16:06:58.647Z,952.32
2022-10-01T16:09:58.838Z,952.26
2022-10-01T16:12:59.354Z,952.35
2022-10-01T16:15:59.054Z,952.39
2022-10-01T16:18:59.428Z,952.55
2022-10-01T16:21:58.912Z,952.51
2022-10-01T16:24:59.421Z,952.64
2022-10-01T16:27:58.335Z,952.68
2022-10-01T16:30:59.699Z,952.72
2022-10-01T16:33:59.139Z,952.72
2022-10-01T16:36:59.146Z,952.65
2022-10-01T16:39:59.861Z,952.8
2022-10-01T16:42:59.144Z,952.78
2022-10-01T16:45:59.484Z,952.82
2022-10-01T16:48:58.534Z,952.91
2022-10-01T16:51:58.797Z,952.93
2022-10-01T16:54:58.477Z,952.82
2022-10-01T16:57:58.562Z,952.9
2022-10-01T17:00:59.345Z,952.93
2022-10-01T17:03:58.953Z,952.97
2022-10-01T17:06:59.393Z,953.03
2022-10-01T17:09:59.300Z,953.12
2022-10-01T17:12:59.385Z,953.13
2022-10-01T17:15:59.767Z,953.13
2022-10-01T17:18:59.163Z,953.2
2022-10-01T17:21:59.763Z,953.36
2022-10-01T17:24:59.208Z,953.32
2022-10-01T17:27:59.111Z,953.39
2022-10-01T17:30:59.894Z,953.44
2022-10-01T17:33:59.137Z,953.55
2022-10-01T17:36:58.895Z,953.6
2022-10-01T17:39:59.833Z,953.71
2022-10-01T17:42:59.075Z,953.68
2022-10-01T17:45:59.143Z,953.72
2022-10-01T17:48:59.328Z,953.73
2022-10-01T17:51:59.249Z,953.8
2022-10-01T17:54:59.268Z,953.88
2022-10-01T17:57:59.748Z,953.91
2022-10-01T18:01:26.119Z,953.76
2022-10-01T18:03:59.540Z,953.71
2022-10-01T18:06:59.804Z,953.86
2022-10-01T18:09:59.371Z,953.8
2022-10-01T18:12:58.779Z,953.88
2022-10-01T18:15:59.496Z,953.87
2022-10-01T18:21:59.400Z,954.06
2022-10-01T18:24:59.343Z,954.03
2022-10-01T18:27:59.524Z,954.09
2022-10-01T18:30:59.751Z,954.15
2022-10-01T18:33:58.537Z,954.15
2022-10-01T18:36:58.763Z,954.13
2022-10-01T18:39:59.048Z,954.2
2022-10-01T18:42:58.950Z,954.28
2022-10-01T18:45:59.207Z,954.26
2022-10-01T18:48:58.932Z,954.34
2022-10-01T18:51:58.829Z,954.42
2022-10-01T18:54:59.635Z,954.35
2022-10-01T18:57:58.656Z,954.33
2022-10-01T19:00:59.467Z,954.45
2022-10-01T19:03:59.521Z,954.5
2022-10-01T19:06:59.242Z,954.5
2022-10-01T19:09:59.260Z,954.37
2022-10-01T19:12:59.560Z,954.47
2022-10-01T19:15:58.820Z,954.53
2022-10-01T19:18:58.888Z,954.62
2022-10-01T19:21:59.109Z,954.71
2022-10-01T19:24:59.571Z,954.78
2022-10-01T19:27:59.414Z,954.75
2022-10-01T19:30:58.954Z,954.75
2022-10-01T19:33:59.955Z,954.92
2022-10-01T19:36:59.465Z,954.89
2022-10-01T19:39:58.700Z,954.95
2022-10-01T19:42:58.988Z,954.98
2022-10-01T19:45:59.185Z,955.21
2022-10-01T19:48:59.514Z,955.17
2022-10-01T19:51:58.725Z,955.18
2022-10-01T19:54:58.615Z,955.38
2022-10-01T19:57:58.984Z,955.44
2022-10-01T20:00:59.222Z,955.48
2022-10-01T20:03:59.078Z,955.46
2022-10-01T20:06:59.425Z,955.44
2022-10-01T20:10:05.006Z,955.54
2022-10-01T20:12:59.062Z,955.72
2022-10-01T20:15:59.752Z,955.79
2022-10-01T20:18:59.258Z,955.79
2022-10-01T20:21:59.172Z,955.8
2022-10-01T20:24:59.158Z,955.83
2022-10-01T20:27:58.686Z,955.89
2022-10-01T20:30:59.700Z,956.07
2022-10-01T20:33:59.107Z,956.15
2022-10-01T20:36:59.235Z,956.19
2022-10-01T20:39:59.224Z,956.09
2022-10-01T20:42:59.275Z,956.18
2022-10-01T20:45:58.972Z,956.21
2022-10-01T20:48:59.204Z,956.32
2022-10-01T20:51:58.763Z,956.3
2022-10-01T20:54:58.677Z,956.31
2022-10-01T20:57:58.769Z,956.42
2022-10-01T21:00:59.086Z,956.4
2022-10-01T21:03:59.372Z,956.41
2022-10-01T21:06:59.047Z,956.38
2022-10-01T21:09:59.900Z,956.57
2022-10-01T21:12:59.195Z,956.58
2022-10-01T21:15:59.179Z,956.67
2022-10-01T21:18:59.294Z,956.67
2022-10-01T21:21:59.799Z,956.74
2022-10-01T21:24:58.994Z,956.74
2022-10-01T21:27:59.374Z,956.83
2022-10-01T21:30:59.193Z,956.95
2022-10-01T21:33:58.652Z,956.92
2022-10-01T21:36:59.258Z,956.97
2022-10-01T21:39:59.079Z,956.97
2022-10-01T21:42:59.243Z,957.06
2022-10-01T21:46:00.256Z,957.09
2022-10-01T21:48:59.428Z,957.18
2022-10-01T21:51:59.518Z,957.28
2022-10-01T21:54:59.299Z,957.18
2022-10-01T21:57:58.963Z,957.31
2022-10-01T22:00:59.247Z,957.24
2022-10-01T22:03:58.120Z,957.2
2022-10-01T22:06:59.308Z,957.37
2022-10-01T22:09:59.011Z,957.47
2022-10-01T22:12:59.099Z,957.43
2022-10-01T22:15:59.219Z,957.53
2022-10-01T22:18:58.837Z,957.63
2022-10-01T22:21:59.165Z,957.6
2022-10-01T22:24:59.173Z,957.59
2022-10-01T22:27:58.845Z,957.56
2022-10-01T22:30:58.654Z,957.6
2022-10-01T22:33:58.938Z,957.67
2022-10-01T22:36:59.082Z,957.64
2022-10-01T22:39:58.798Z,957.7
2022-10-01T22:42:59.456Z,957.76
2022-10-01T22:45:58.727Z,957.73
2022-10-01T22:48:58.452Z,957.73
2022-10-01T22:51:58.431Z,957.75
2022-10-01T22:54:58.670Z,957.76
2022-10-01T22:57:58.755Z,957.82
2022-10-01T23:00:59.423Z,957.73
2022-10-01T23:03:58.383Z,957.79
2022-10-01T23:06:59.240Z,957.79
2022-10-01T23:09:58.268Z,957.79
2022-10-01T23:12:58.722Z,957.76
2022-10-01T23:15:59.184Z,957.81
2022-10-01T23:18:59.162Z,957.94
2022-10-01T23:21:59.289Z,957.78
2022-10-01T23:24:58.563Z,957.91
2022-10-01T23:27:58.380Z,957.88
2022-10-01T23:31:15.051Z,957.92
2022-10-01T23:33:58.821Z,958.05
2022-10-01T23:36:58.826Z,958.07
2022-10-01T23:39:58.900Z,958.05
2022-10-01T23:42:58.778Z,958.0
2022-10-01T23:45:58.829Z,958.1
2022-10-01T23:48:58.761Z,958.18
2022-10-01T23:51:58.841Z,958.11
2022-10-01T23:54:58.473Z,958.11
2022-10-01T23:58:02.990Z,958.2
